KLBL

Liberal Mid-America Regional Airport

Liberal, Kansas, USA
METAR KLBL 140356Z AUTO 28006KT 10SM CLR M04/M06 A3044 RMK AO2 SLP337 T10391061 FZRANO
Observed Flight Rules
Nov-14 @ 03:56 UTC (53 minutes ago) Visual Flight Rules
Wind Visibility Clouds
280° at 6 knots 10 miles
  • Clear skies
Temperatures Readings
Current -4°C / 25°F
Dewpoint -6°C / 21°F
Humidity 86%
Altimeter 30.44" Hg
Pressure 1033.7 hPa
Elevation 879
METAR KLBL 140356Z AUTO 28006KT 10SM CLR M04/M06 A3044 RMK AO2 SLP337 T10391061 FZRANO
Observed Flight Rules
Nov-14 @ 03:56 UTC
(53 minutes ago)
VFR
Wind Visibility
280° at 6 knots 10 miles
Clouds
  • Clear skies
Temperature Dewpoint
-4°C / 25°F -6°C / 21°F
Humidity Altimeter Pressure
86% 30.44" Hg 1033.7 hPa